McChord Air Force Base
KTCM : now visible

Airfield :











YOU CAN JOIN US ON...

 
LOGIN :

Register | Disclaimer

   EN    FR    IT 

 









Legend :    VFR   Marginal VFR   IFR   Intensive IFR   Very Intensive IFR
Visi :
Ceiling :
>= 8 km
>= 3000ft
5 to 8 km
1000 to 3000 ft
1500m to 5 km
500 to 1000 ft
800 to 1500m
200 to 500 ft
< 800m
< 200 ft
Symbols :   Thunderstorms  Fog  Heavy snow  Heavy precipitations  Wind > 20 kt






- Airport Elevation : 322 ft


KTCM - McChord Air Force Base

CURRENT METAR :
  • 220720Z 00000KT 7/8SM R34/4000V5500FT FZFG OVC002 M01/M01 A3013 RMK AO2A VIS 7/8V7 CIG 000 RWY16 SLP210 $

EXPIRED METARs :
  • 220707Z 00000KT 1/2SM FZFG OVC002 M01/M01 A3012 RMK VIS 1/2 RWY16 CIG 000 RWY16 SLP207 $
  • 220704Z AUTO 00000KT 10SM -FZDZ FZFG OVC002 M01/M01 A3012 RMK AO2 VIS 3/8 RWY16 FZDZB0658 CIG 001 RWY16 SLP207 $
  • 220648Z AUTO 00000KT 10SM FZFG OVC003 M01/M01 A3011 RMK AO2 VIS 1/2 RWY16 VIS 3/8 RWY16/34 CIG 001 RWY16 SLP203 $
  • 220628Z AUTO 00000KT 10SM FZFG OVC002 M02/ A3010 RMK AO2 VIS 1/4 RWY16 VIS 1/2 RWY16/34 SLP200 $
  • 220613Z AUTO 00000KT 1 3/4SM BR BKN002 M01/ A3009 RMK AO2 VIS 1 3/4V6 VIS 5/8 RWY16 VIS 1/2 RWY16/34 SLP196 $
  • 220558Z AUTO 00000KT 9SM BR BKN001 M02/ A3009 RMK AO2 VIS 5/8 RWY16 VIS 1/2 RWY16/34 UPB38E53 BKN V SCT SLP197 P0000 60000 10028 21018 52022 $
  • 220553Z AUTO 00000KT 10SM FZFG BKN001 M02/ A3009 RMK AO2 VIS 1/2 RWY16 VIS 3/8 RWY16/34 UPB38E53 BKN V SCT SLP197 $
  • 220538Z AUTO 00000KT 7/8SM R34/4000VP6000FT -UP FZFG BKN001 M01/ A3008 RMK AO2 VIS 3/8 RWY16 UPB38 SLP193 $
  • 220528Z AUTO 00000KT 1SM R34/5000V6000FT BR BKN000 M01/ A3008 RMK AO2 BKN V SCT SLP193 $
  • 220523Z AUTO 00000KT 7/8SM R34/5000V6000FT BR SCT000 M01/ A3008 RMK AO2 SLP193 $
  • 220458Z AUTO 00000KT 5/8SM R34/2400VP6000FT FZFG VV001 M01/ A3007 RMK AO2 VIS 5/8V2 1/4 FZDZB15E18FZDZB33E42 CIG 000 RWY16 SLP190 P0000 $
  • 220447Z AUTO 00000KT 2SM FZFG OVC001 M01/ A3007 RMK AO2 VIS 3/8V2 VIS 1/4 RWY16 VIS 7/8 RWY16/34 FZDZB15E18FZDZB33E42 CIG 000 RWY16 SLP190 $
  • 220442Z AUTO 00000KT 5/8SM R34/2400V6000FT FZFG VV001 M01/ A3007 RMK AO2 FZDZB15E18FZDZB33E42 CIG 000 RWY16 SLP190 $
  • 220433Z AUTO 00000KT 3/8SM R34/1800V2400FT -FZDZ FZFG VV001 M01/ A3006 RMK AO2 FZDZB15E18FZDZB33 CIG 000 RWY16 SLP186 $

TAF TAF KTCM
Valid from the 22 at 05:00 until the 23 at 11:00 UTC


220500Z 2205/2311 VRB06KT 0600 FZFG OVC002 QNH3005INS
TEMPO 2205/2211 0400 FZFG VV001
BECMG 2217/2218 31006KT 9999 NSW FEW003 SCT250 QNH3026INS
BECMG 2302/2303 VRB06KT 0600 FG OVC002 QNH3029INS
TEMPO 2303/2309 0400 FG VV002
BECMG 2309/2310 VRB06KT 1200 BR SCT002 QNH3030INS TX08/2222Z TNM02/2205Z



MET'MAP, your aeronautical weather chart ! - Copyright ORBIFLY December 2007 - Disclaimer

ORBIFLY MET'MAP TEAM :

Programming & Development : Alexandra Zaïnal
Concept & Development : Baudouin d'Aumeries
Co-Development & Prog : Marc-Olivier Méhu
Technical & hardware support : Manuel Goepfert

Contact : metmap@orbifly.com




SOURCES & CREDITS :

   NOAA       Earth
Advisory